aviador You're here:

KMLT Decoded Metar

MILLINOCKET in ME, USA
Report Time2018-01-17 08:53:00
UTC Time2018-01-17 09:19:02
Flight Rules ifr IFR
WindCalm
Visibility3219 m
Phenomena:Light Snow
Mist
Clouds:Overcast 041 Hf
Expected CloudBase > 800 ft AGL from Temp-Dew spread
Ceiling4,100 ft
Temp-10°C (ISA -24)
Dew Point-12°C (85% RH)
AAT-13.2°C
QNH1029 hPa
Density Alt-3,133 ft
Elevation404 ft
Report Wrong Elevation
Raw Report
METAR KMLT 170853Z AUTO 00000KT 2SM -SN BR OVC041 M10/M12 A3039 RMK
AO2 SLP303 P0000 60000 T11001117 55007=

Extra information for KMLT:More info

Metar Taf Metar & Taf Last 4 Metars F.Rules Stats Wind Profile Meteogram Temp Stats Airport Information Weather charts Add Link Nearby VenuesMetar ALERT Operation Metar Decoded Social comments

AIRNAV info for KMLT